sensor_id;sensor_type;location;lat;lon;timestamp;P1;durP1;ratioP1;P2;durP2;ratioP2
75087;SDS011;63664;44.868;40.600;2023-06-14T00:40:33;6.63;;;2.08;;
75087;SDS011;63664;44.868;40.600;2023-06-14T00:43:01;5.28;;;2.15;;
75087;SDS011;63664;44.868;40.600;2023-06-14T00:45:28;3.15;;;1.83;;
75087;SDS011;63664;44.868;40.600;2023-06-14T00:47:54;2.90;;;2.00;;
75087;SDS011;63664;44.868;40.600;2023-06-14T00:50:22;4.97;;;2.00;;
75087;SDS011;63664;44.868;40.600;2023-06-14T00:52:49;5.75;;;1.85;;
75087;SDS011;63664;44.868;40.600;2023-06-14T00:55:20;3.22;;;2.17;;
75087;SDS011;63664;44.868;40.600;2023-06-14T00:57:47;7.03;;;2.00;;
75087;SDS011;63664;44.868;40.600;2023-06-14T01:00:15;2.10;;;1.70;;
75087;SDS011;63664;44.868;40.600;2023-06-14T01:02:42;7.57;;;2.30;;
75087;SDS011;63664;44.868;40.600;2023-06-14T01:05:08;5.90;;;1.98;;
75087;SDS011;63664;44.868;40.600;2023-06-14T01:10:47;4.45;;;2.58;;
75087;SDS011;63664;44.868;40.600;2023-06-14T01:13:34;6.53;;;2.40;;
75087;SDS011;63664;44.868;40.600;2023-06-14T01:16:03;8.55;;;2.78;;
75087;SDS011;63664;44.868;40.600;2023-06-14T01:18:33;10.13;;;3.00;;
75087;SDS011;63664;44.868;40.600;2023-06-14T01:21:01;8.55;;;3.33;;
75087;SDS011;63664;44.868;40.600;2023-06-14T01:23:32;11.38;;;4.95;;
75087;SDS011;63664;44.868;40.600;2023-06-14T01:25:58;12.90;;;4.95;;
75087;SDS011;63664;44.868;40.600;2023-06-14T01:28:30;14.82;;;3.97;;
75087;SDS011;63664;44.868;40.600;2023-06-14T01:31:05;13.43;;;4.90;;
75087;SDS011;63664;44.868;40.600;2023-06-14T01:41:39;69.95;;;19.15;;
75087;SDS011;63664;44.868;40.600;2023-06-14T01:44:11;54.28;;;17.40;;
75087;SDS011;63664;44.868;40.600;2023-06-14T01:46:42;50.55;;;17.42;;
75087;SDS011;63664;44.868;40.600;2023-06-14T01:49:11;50.50;;;18.23;;
75087;SDS011;63664;44.868;40.600;2023-06-14T01:51:37;39.80;;;14.77;;
75087;SDS011;63664;44.868;40.600;2023-06-14T01:54:06;36.92;;;13.82;;
75087;SDS011;63664;44.868;40.600;2023-06-14T01:56:32;33.05;;;13.23;;
75087;SDS011;63664;44.868;40.600;2023-06-14T01:58:58;27.77;;;12.30;;
75087;SDS011;63664;44.868;40.600;2023-06-14T02:01:25;38.75;;;12.13;;
75087;SDS011;63664;44.868;40.600;2023-06-14T02:03:52;25.38;;;10.05;;
75087;SDS011;63664;44.868;40.600;2023-06-14T02:06:19;21.13;;;9.68;;
75087;SDS011;63664;44.868;40.600;2023-06-14T02:08:45;27.70;;;9.95;;
75087;SDS011;63664;44.868;40.600;2023-06-14T02:11:12;27.35;;;9.68;;
75087;SDS011;63664;44.868;40.600;2023-06-14T02:13:38;26.00;;;9.27;;
75087;SDS011;63664;44.868;40.600;2023-06-14T02:16:04;19.88;;;7.88;;
75087;SDS011;63664;44.868;40.600;2023-06-14T02:18:30;9.80;;;4.65;;
75087;SDS011;63664;44.868;40.600;2023-06-14T02:20:59;18.17;;;6.75;;
75087;SDS011;63664;44.868;40.600;2023-06-14T02:23:28;11.02;;;5.53;;
75087;SDS011;63664;44.868;40.600;2023-06-14T02:25:54;12.27;;;5.15;;
75087;SDS011;63664;44.868;40.600;2023-06-14T02:28:20;12.07;;;5.20;;
75087;SDS011;63664;44.868;40.600;2023-06-14T02:30:47;5.57;;;3.45;;
75087;SDS011;63664;44.868;40.600;2023-06-14T02:33:13;5.38;;;3.38;;
75087;SDS011;63664;44.868;40.600;2023-06-14T02:35:39;4.93;;;3.42;;
75087;SDS011;63664;44.868;40.600;2023-06-14T02:38:05;7.18;;;2.92;;
75087;SDS011;63664;44.868;40.600;2023-06-14T02:40:32;6.13;;;3.13;;
75087;SDS011;63664;44.868;40.600;2023-06-14T02:42:58;4.82;;;3.50;;
75087;SDS011;63664;44.868;40.600;2023-06-14T02:45:25;8.65;;;3.10;;
75087;SDS011;63664;44.868;40.600;2023-06-14T02:47:53;5.25;;;3.50;;
75087;SDS011;63664;44.868;40.600;2023-06-14T02:50:23;5.85;;;3.78;;
75087;SDS011;63664;44.868;40.600;2023-06-14T02:52:50;3.95;;;3.33;;
75087;SDS011;63664;44.868;40.600;2023-06-14T02:55:18;4.68;;;3.53;;
75087;SDS011;63664;44.868;40.600;2023-06-14T02:57:44;5.00;;;3.72;;
75087;SDS011;63664;44.868;40.600;2023-06-14T03:00:13;5.00;;;3.20;;
75087;SDS011;63664;44.868;40.600;2023-06-14T03:02:41;6.88;;;3.25;;
75087;SDS011;63664;44.868;40.600;2023-06-14T03:05:12;6.05;;;3.25;;
75087;SDS011;63664;44.868;40.600;2023-06-14T03:07:41;7.68;;;3.45;;
75087;SDS011;63664;44.868;40.600;2023-06-14T03:10:11;6.88;;;3.22;;
75087;SDS011;63664;44.868;40.600;2023-06-14T03:12:40;4.72;;;2.97;;
75087;SDS011;63664;44.868;40.600;2023-06-14T03:15:09;4.50;;;2.88;;
75087;SDS011;63664;44.868;40.600;2023-06-14T03:17:41;4.93;;;2.30;;
75087;SDS011;63664;44.868;40.600;2023-06-14T03:20:12;5.30;;;2.55;;
75087;SDS011;63664;44.868;40.600;2023-06-14T03:22:38;4.88;;;2.20;;
75087;SDS011;63664;44.868;40.600;2023-06-14T03:25:05;6.47;;;2.45;;
75087;SDS011;63664;44.868;40.600;2023-06-14T03:27:36;4.65;;;2.65;;
75087;SDS011;63664;44.868;40.600;2023-06-14T03:30:04;5.03;;;2.30;;
75087;SDS011;63664;44.868;40.600;2023-06-14T03:32:32;4.57;;;1.75;;
75087;SDS011;63664;44.868;40.600;2023-06-14T03:34:59;2.47;;;1.73;;
75087;SDS011;63664;44.868;40.600;2023-06-14T03:37:27;2.63;;;1.70;;
75087;SDS011;63664;44.868;40.600;2023-06-14T03:39:56;3.72;;;1.80;;
75087;SDS011;63664;44.868;40.600;2023-06-14T03:42:26;2.33;;;1.67;;
75087;SDS011;63664;44.868;40.600;2023-06-14T03:44:54;3.15;;;1.50;;
75087;SDS011;63664;44.868;40.600;2023-06-14T03:47:25;6.65;;;1.77;;
75087;SDS011;63664;44.868;40.600;2023-06-14T03:49:55;7.55;;;1.88;;
75087;SDS011;63664;44.868;40.600;2023-06-14T03:52:25;5.68;;;1.30;;
75087;SDS011;63664;44.868;40.600;2023-06-14T03:54:55;1.55;;;1.30;;
75087;SDS011;63664;44.868;40.600;2023-06-14T03:57:23;3.72;;;1.10;;
75087;SDS011;63664;44.868;40.600;2023-06-14T03:59:51;6.28;;;1.33;;
75087;SDS011;63664;44.868;40.600;2023-06-14T04:02:21;2.05;;;1.42;;
75087;SDS011;63664;44.868;40.600;2023-06-14T04:04:48;3.13;;;1.15;;
75087;SDS011;63664;44.868;40.600;2023-06-14T04:07:15;4.45;;;1.25;;
75087;SDS011;63664;44.868;40.600;2023-06-14T04:09:46;2.40;;;1.30;;
75087;SDS011;63664;44.868;40.600;2023-06-14T04:12:12;6.05;;;2.35;;
75087;SDS011;63664;44.868;40.600;2023-06-14T04:14:39;2.15;;;1.50;;
75087;SDS011;63664;44.868;40.600;2023-06-14T04:17:08;4.22;;;1.65;;
75087;SDS011;63664;44.868;40.600;2023-06-14T04:19:39;2.30;;;1.20;;
75087;SDS011;63664;44.868;40.600;2023-06-14T04:22:07;4.63;;;1.75;;
75087;SDS011;63664;44.868;40.600;2023-06-14T04:24:39;3.38;;;1.50;;
75087;SDS011;63664;44.868;40.600;2023-06-14T04:27:10;4.22;;;1.58;;
75087;SDS011;63664;44.868;40.600;2023-06-14T04:29:38;2.83;;;1.38;;
75087;SDS011;63664;44.868;40.600;2023-06-14T04:32:13;2.65;;;1.45;;
75087;SDS011;63664;44.868;40.600;2023-06-14T04:37:15;2.53;;;1.13;;
75087;SDS011;63664;44.868;40.600;2023-06-14T04:39:44;2.22;;;1.17;;
75087;SDS011;63664;44.868;40.600;2023-06-14T04:42:10;4.35;;;1.40;;
75087;SDS011;63664;44.868;40.600;2023-06-14T04:44:38;4.15;;;1.25;;
75087;SDS011;63664;44.868;40.600;2023-06-14T04:47:05;4.90;;;1.30;;
75087;SDS011;63664;44.868;40.600;2023-06-14T04:49:32;3.58;;;1.30;;
75087;SDS011;63664;44.868;40.600;2023-06-14T04:52:00;5.43;;;1.00;;
75087;SDS011;63664;44.868;40.600;2023-06-14T04:54:40;1.90;;;1.27;;
75087;SDS011;63664;44.868;40.600;2023-06-14T04:57:10;3.35;;;1.50;;
75087;SDS011;63664;44.868;40.600;2023-06-14T04:59:41;3.78;;;1.70;;
75087;SDS011;63664;44.868;40.600;2023-06-14T05:02:10;2.25;;;1.30;;
75087;SDS011;63664;44.868;40.600;2023-06-14T05:04:37;3.88;;;1.80;;
75087;SDS011;63664;44.868;40.600;2023-06-14T05:07:07;3.50;;;1.60;;
75087;SDS011;63664;44.868;40.600;2023-06-14T05:09:35;3.20;;;1.98;;
75087;SDS011;63664;44.868;40.600;2023-06-14T05:12:02;3.30;;;1.77;;
75087;SDS011;63664;44.868;40.600;2023-06-14T05:14:29;4.68;;;1.73;;
75087;SDS011;63664;44.868;40.600;2023-06-14T05:16:58;2.88;;;1.70;;
75087;SDS011;63664;44.868;40.600;2023-06-14T05:19:27;8.55;;;1.58;;
75087;SDS011;63664;44.868;40.600;2023-06-14T05:21:54;4.80;;;2.10;;
75087;SDS011;63664;44.868;40.600;2023-06-14T05:24:24;5.20;;;2.25;;
75087;SDS011;63664;44.868;40.600;2023-06-14T05:26:51;5.55;;;2.20;;
75087;SDS011;63664;44.868;40.600;2023-06-14T05:29:17;8.50;;;2.42;;
75087;SDS011;63664;44.868;40.600;2023-06-14T05:31:44;3.50;;;2.33;;
75087;SDS011;63664;44.868;40.600;2023-06-14T05:34:10;3.22;;;1.95;;
75087;SDS011;63664;44.868;40.600;2023-06-14T05:36:39;5.50;;;1.90;;
75087;SDS011;63664;44.868;40.600;2023-06-14T05:39:05;3.42;;;1.98;;
75087;SDS011;63664;44.868;40.600;2023-06-14T05:41:32;4.93;;;2.38;;
75087;SDS011;63664;44.868;40.600;2023-06-14T05:43:58;4.22;;;2.55;;
75087;SDS011;63664;44.868;40.600;2023-06-14T05:46:26;4.47;;;1.98;;
75087;SDS011;63664;44.868;40.600;2023-06-14T05:48:52;3.45;;;2.28;;
75087;SDS011;63664;44.868;40.600;2023-06-14T05:51:19;3.10;;;1.88;;
75087;SDS011;63664;44.868;40.600;2023-06-14T05:53:46;3.42;;;1.80;;
75087;SDS011;63664;44.868;40.600;2023-06-14T05:56:21;3.17;;;1.85;;
75087;SDS011;63664;44.868;40.600;2023-06-14T05:58:50;4.60;;;2.00;;
75087;SDS011;63664;44.868;40.600;2023-06-14T06:01:16;2.25;;;1.80;;
75087;SDS011;63664;44.868;40.600;2023-06-14T06:03:42;2.67;;;2.03;;
75087;SDS011;63664;44.868;40.600;2023-06-14T06:06:12;4.10;;;1.83;;
75087;SDS011;63664;44.868;40.600;2023-06-14T06:08:39;5.32;;;1.83;;
75087;SDS011;63664;44.868;40.600;2023-06-14T06:11:06;6.35;;;2.30;;
75087;SDS011;63664;44.868;40.600;2023-06-14T06:13:32;3.90;;;1.52;;
75087;SDS011;63664;44.868;40.600;2023-06-14T06:15:59;3.53;;;1.63;;
75087;SDS011;63664;44.868;40.600;2023-06-14T06:18:25;3.42;;;1.75;;
75087;SDS011;63664;44.868;40.600;2023-06-14T06:20:52;2.22;;;1.70;;
75087;SDS011;63664;44.868;40.600;2023-06-14T06:23:18;3.80;;;1.40;;
75087;SDS011;63664;44.868;40.600;2023-06-14T06:25:44;2.10;;;1.52;;
75087;SDS011;63664;44.868;40.600;2023-06-14T06:28:10;1.75;;;1.35;;
75087;SDS011;63664;44.868;40.600;2023-06-14T06:30:37;5.15;;;1.55;;
75087;SDS011;63664;44.868;40.600;2023-06-14T08:55:07;2.92;;;1.38;;
75087;SDS011;63664;44.868;40.600;2023-06-14T08:57:36;2.72;;;1.25;;
75087;SDS011;63664;44.868;40.600;2023-06-14T09:02:38;1.73;;;1.23;;
75087;SDS011;63664;44.868;40.600;2023-06-14T09:05:09;3.28;;;1.45;;
75087;SDS011;63664;44.868;40.600;2023-06-14T09:07:42;3.10;;;1.50;;
75087;SDS011;63664;44.868;40.600;2023-06-14T09:10:09;4.80;;;1.73;;
75087;SDS011;63664;44.868;40.600;2023-06-14T09:12:41;2.45;;;1.40;;
75087;SDS011;63664;44.868;40.600;2023-06-14T09:15:08;3.45;;;1.20;;
75087;SDS011;63664;44.868;40.600;2023-06-14T09:17:35;6.65;;;1.70;;
75087;SDS011;63664;44.868;40.600;2023-06-14T09:20:04;2.53;;;1.70;;
75087;SDS011;63664;44.868;40.600;2023-06-14T09:22:45;2.95;;;1.98;;
75087;SDS011;63664;44.868;40.600;2023-06-14T09:25:12;5.15;;;1.98;;
75087;SDS011;63664;44.868;40.600;2023-06-14T09:27:41;4.75;;;1.77;;
75087;SDS011;63664;44.868;40.600;2023-06-14T09:30:11;2.78;;;1.67;;
75087;SDS011;63664;44.868;40.600;2023-06-14T09:32:39;2.28;;;1.80;;
75087;SDS011;63664;44.868;40.600;2023-06-14T09:35:08;3.50;;;1.80;;
75087;SDS011;63664;44.868;40.600;2023-06-14T09:37:37;3.60;;;1.75;;
75087;SDS011;63664;44.868;40.600;2023-06-14T09:40:04;2.47;;;1.88;;
75087;SDS011;63664;44.868;40.600;2023-06-14T09:42:33;3.10;;;1.83;;
75087;SDS011;63664;44.868;40.600;2023-06-14T09:45:02;3.80;;;1.70;;
75087;SDS011;63664;44.868;40.600;2023-06-14T09:47:36;2.53;;;1.77;;
75087;SDS011;63664;44.868;40.600;2023-06-14T09:50:05;6.45;;;2.00;;
75087;SDS011;63664;44.868;40.600;2023-06-14T09:52:32;3.78;;;1.70;;
75087;SDS011;63664;44.868;40.600;2023-06-14T09:54:58;3.13;;;1.45;;
75087;SDS011;63664;44.868;40.600;2023-06-14T09:57:26;2.22;;;1.40;;
75087;SDS011;63664;44.868;40.600;2023-06-14T09:59:57;3.42;;;1.80;;
75087;SDS011;63664;44.868;40.600;2023-06-14T10:02:26;2.47;;;1.40;;
75087;SDS011;63664;44.868;40.600;2023-06-14T10:05:05;2.83;;;1.50;;
75087;SDS011;63664;44.868;40.600;2023-06-14T10:07:52;3.90;;;1.73;;
75087;SDS011;63664;44.868;40.600;2023-06-14T10:10:22;1.85;;;1.33;;
75087;SDS011;63664;44.868;40.600;2023-06-14T10:12:49;3.42;;;1.50;;
75087;SDS011;63664;44.868;40.600;2023-06-14T10:15:20;3.05;;;1.88;;
75087;SDS011;63664;44.868;40.600;2023-06-14T10:18:22;2.38;;;1.45;;
75087;SDS011;63664;44.868;40.600;2023-06-14T10:21:04;3.78;;;1.77;;
75087;SDS011;63664;44.868;40.600;2023-06-14T10:23:35;4.95;;;1.73;;
75087;SDS011;63664;44.868;40.600;2023-06-14T10:26:08;3.17;;;1.70;;
75087;SDS011;63664;44.868;40.600;2023-06-14T10:28:43;4.15;;;1.88;;
75087;SDS011;63664;44.868;40.600;2023-06-14T10:31:49;5.32;;;1.70;;
75087;SDS011;63664;44.868;40.600;2023-06-14T10:34:27;3.53;;;1.65;;
75087;SDS011;63664;44.868;40.600;2023-06-14T10:39:39;2.28;;;1.50;;
75087;SDS011;63664;44.868;40.600;2023-06-14T10:42:12;2.45;;;1.50;;
75087;SDS011;63664;44.868;40.600;2023-06-14T10:44:40;3.42;;;1.45;;
75087;SDS011;63664;44.868;40.600;2023-06-14T10:47:31;2.13;;;1.40;;
75087;SDS011;63664;44.868;40.600;2023-06-14T10:52:33;3.85;;;1.63;;
75087;SDS011;63664;44.868;40.600;2023-06-14T10:55:08;3.88;;;1.48;;
75087;SDS011;63664;44.868;40.600;2023-06-14T10:57:44;3.20;;;1.60;;
75087;SDS011;63664;44.868;40.600;2023-06-14T11:00:20;3.05;;;1.60;;
75087;SDS011;63664;44.868;40.600;2023-06-14T11:05:41;5.13;;;1.45;;
75087;SDS011;63664;44.868;40.600;2023-06-14T11:10:50;2.67;;;1.50;;
75087;SDS011;63664;44.868;40.600;2023-06-14T11:13:20;3.88;;;1.40;;
75087;SDS011;63664;44.868;40.600;2023-06-14T11:15:51;3.75;;;1.30;;
75087;SDS011;63664;44.868;40.600;2023-06-14T11:18:23;1.27;;;1.15;;
75087;SDS011;63664;44.868;40.600;2023-06-14T11:20:50;1.90;;;1.23;;
75087;SDS011;63664;44.868;40.600;2023-06-14T11:23:17;3.10;;;1.52;;
75087;SDS011;63664;44.868;40.600;2023-06-14T11:25:43;2.28;;;1.30;;
75087;SDS011;63664;44.868;40.600;2023-06-14T11:28:10;1.73;;;1.17;;
75087;SDS011;63664;44.868;40.600;2023-06-14T11:30:36;1.92;;;1.15;;
75087;SDS011;63664;44.868;40.600;2023-06-14T11:33:02;2.42;;;1.17;;
75087;SDS011;63664;44.868;40.600;2023-06-14T11:35:35;2.55;;;1.25;;
75087;SDS011;63664;44.868;40.600;2023-06-14T11:38:01;3.65;;;1.60;;
75087;SDS011;63664;44.868;40.600;2023-06-14T11:40:28;3.97;;;1.85;;
75087;SDS011;63664;44.868;40.600;2023-06-14T11:43:00;4.47;;;1.60;;
75087;SDS011;63664;44.868;40.600;2023-06-14T11:45:29;2.60;;;1.75;;
75087;SDS011;63664;44.868;40.600;2023-06-14T11:47:58;4.20;;;1.50;;
75087;SDS011;63664;44.868;40.600;2023-06-14T11:50:25;2.22;;;1.63;;
75087;SDS011;63664;44.868;40.600;2023-06-14T11:52:56;4.15;;;1.67;;
75087;SDS011;63664;44.868;40.600;2023-06-14T11:55:36;2.40;;;1.70;;
75087;SDS011;63664;44.868;40.600;2023-06-14T11:58:04;3.88;;;1.63;;
75087;SDS011;63664;44.868;40.600;2023-06-14T12:00:31;3.50;;;1.25;;
75087;SDS011;63664;44.868;40.600;2023-06-14T12:02:57;7.80;;;1.98;;
75087;SDS011;63664;44.868;40.600;2023-06-14T12:05:24;2.28;;;1.35;;
75087;SDS011;63664;44.868;40.600;2023-06-14T12:07:58;2.72;;;1.30;;
75087;SDS011;63664;44.868;40.600;2023-06-14T12:10:26;4.45;;;1.30;;
75087;SDS011;63664;44.868;40.600;2023-06-14T12:13:00;5.10;;;1.52;;
75087;SDS011;63664;44.868;40.600;2023-06-14T12:15:29;1.65;;;1.20;;
75087;SDS011;63664;44.868;40.600;2023-06-14T12:17:57;1.98;;;1.48;;
75087;SDS011;63664;44.868;40.600;2023-06-14T12:20:28;2.45;;;1.65;;
75087;SDS011;63664;44.868;40.600;2023-06-14T12:22:57;2.10;;;1.40;;
75087;SDS011;63664;44.868;40.600;2023-06-14T12:25:36;2.95;;;1.30;;
75087;SDS011;63664;44.868;40.600;2023-06-14T12:28:06;2.70;;;1.40;;
75087;SDS011;63664;44.868;40.600;2023-06-14T12:30:37;2.38;;;1.10;;
75087;SDS011;63664;44.868;40.600;2023-06-14T12:35:31;2.45;;;1.30;;
75087;SDS011;63664;44.868;40.600;2023-06-14T12:37:57;3.28;;;1.35;;
75087;SDS011;63664;44.868;40.600;2023-06-14T12:40:23;2.60;;;1.40;;
75087;SDS011;63664;44.868;40.600;2023-06-14T12:42:50;2.53;;;1.40;;
75087;SDS011;63664;44.868;40.600;2023-06-14T12:45:16;4.28;;;1.40;;
75087;SDS011;63664;44.868;40.600;2023-06-14T12:47:45;2.15;;;1.38;;
75087;SDS011;63664;44.868;40.600;2023-06-14T12:50:11;2.97;;;1.40;;
75087;SDS011;63664;44.868;40.600;2023-06-14T12:52:37;3.20;;;1.38;;
75087;SDS011;63664;44.868;40.600;2023-06-14T12:55:19;3.08;;;1.27;;
75087;SDS011;63664;44.868;40.600;2023-06-14T12:57:46;2.97;;;1.50;;
75087;SDS011;63664;44.868;40.600;2023-06-14T13:00:15;2.10;;;1.30;;
75087;SDS011;63664;44.868;40.600;2023-06-14T13:02:43;3.40;;;1.55;;
75087;SDS011;63664;44.868;40.600;2023-06-14T13:05:12;3.33;;;1.50;;
75087;SDS011;63664;44.868;40.600;2023-06-14T13:07:38;2.88;;;1.63;;
75087;SDS011;63664;44.868;40.600;2023-06-14T13:10:09;4.65;;;1.52;;
75087;SDS011;63664;44.868;40.600;2023-06-14T13:12:37;2.95;;;1.73;;
75087;SDS011;63664;44.868;40.600;2023-06-14T13:15:04;4.45;;;1.65;;
75087;SDS011;63664;44.868;40.600;2023-06-14T13:17:35;4.95;;;1.58;;
75087;SDS011;63664;44.868;40.600;2023-06-14T13:20:06;6.63;;;2.03;;
75087;SDS011;63664;44.868;40.600;2023-06-14T13:22:33;2.58;;;1.63;;
75087;SDS011;63664;44.868;40.600;2023-06-14T13:25:01;8.23;;;3.88;;
75087;SDS011;63664;44.868;40.600;2023-06-14T13:27:29;4.32;;;1.58;;
75087;SDS011;63664;44.868;40.600;2023-06-14T13:29:55;3.47;;;1.52;;
75087;SDS011;63664;44.868;40.600;2023-06-14T13:32:21;2.30;;;1.20;;
75087;SDS011;63664;44.868;40.600;2023-06-14T13:34:49;2.13;;;1.88;;
75087;SDS011;63664;44.868;40.600;2023-06-14T13:37:16;3.90;;;1.58;;
75087;SDS011;63664;44.868;40.600;2023-06-14T13:39:45;6.25;;;1.70;;
75087;SDS011;63664;44.868;40.600;2023-06-14T13:42:13;2.22;;;1.83;;
75087;SDS011;63664;44.868;40.600;2023-06-14T13:44:39;2.15;;;1.30;;
75087;SDS011;63664;44.868;40.600;2023-06-14T13:47:05;2.28;;;1.50;;
75087;SDS011;63664;44.868;40.600;2023-06-14T13:49:32;5.00;;;2.10;;
75087;SDS011;63664;44.868;40.600;2023-06-14T13:52:00;3.03;;;1.50;;
75087;SDS011;63664;44.868;40.600;2023-06-14T13:54:27;3.38;;;2.10;;
75087;SDS011;63664;44.868;40.600;2023-06-14T13:56:53;3.88;;;1.85;;
75087;SDS011;63664;44.868;40.600;2023-06-14T13:59:20;4.13;;;1.60;;
75087;SDS011;63664;44.868;40.600;2023-06-14T14:01:48;3.55;;;1.80;;
75087;SDS011;63664;44.868;40.600;2023-06-14T14:04:15;3.40;;;1.60;;
75087;SDS011;63664;44.868;40.600;2023-06-14T14:06:42;2.97;;;1.50;;
75087;SDS011;63664;44.868;40.600;2023-06-14T14:09:08;3.25;;;1.38;;
75087;SDS011;63664;44.868;40.600;2023-06-14T14:11:35;2.33;;;1.77;;
75087;SDS011;63664;44.868;40.600;2023-06-14T14:14:01;3.65;;;1.67;;
75087;SDS011;63664;44.868;40.600;2023-06-14T14:16:28;3.78;;;1.70;;
75087;SDS011;63664;44.868;40.600;2023-06-14T14:18:55;2.92;;;1.58;;
75087;SDS011;63664;44.868;40.600;2023-06-14T14:21:22;4.05;;;1.80;;
75087;SDS011;63664;44.868;40.600;2023-06-14T14:23:48;2.28;;;1.60;;
75087;SDS011;63664;44.868;40.600;2023-06-14T14:26:15;4.50;;;1.63;;
75087;SDS011;63664;44.868;40.600;2023-06-14T14:31:11;2.00;;;1.40;;
75087;SDS011;63664;44.868;40.600;2023-06-14T14:33:40;4.28;;;1.30;;
75087;SDS011;63664;44.868;40.600;2023-06-14T14:36:07;4.15;;;1.63;;
75087;SDS011;63664;44.868;40.600;2023-06-14T14:38:34;5.05;;;1.70;;
75087;SDS011;63664;44.868;40.600;2023-06-14T14:41:00;2.72;;;1.42;;
75087;SDS011;63664;44.868;40.600;2023-06-14T14:43:27;2.78;;;1.88;;
75087;SDS011;63664;44.868;40.600;2023-06-14T14:45:56;1.58;;;1.23;;
75087;SDS011;63664;44.868;40.600;2023-06-14T16:40:11;4.57;;;1.90;;
75087;SDS011;63664;44.868;40.600;2023-06-14T16:42:40;7.78;;;1.70;;
75087;SDS011;63664;44.868;40.600;2023-06-14T16:45:07;3.50;;;1.83;;
75087;SDS011;63664;44.868;40.600;2023-06-14T16:47:36;2.72;;;1.52;;
75087;SDS011;63664;44.868;40.600;2023-06-14T16:50:02;3.40;;;1.67;;
75087;SDS011;63664;44.868;40.600;2023-06-14T16:52:29;3.33;;;1.50;;
75087;SDS011;63664;44.868;40.600;2023-06-14T16:54:55;2.90;;;1.67;;
75087;SDS011;63664;44.868;40.600;2023-06-14T16:57:22;7.70;;;1.70;;
75087;SDS011;63664;44.868;40.600;2023-06-14T16:59:48;3.65;;;1.70;;
75087;SDS011;63664;44.868;40.600;2023-06-14T17:02:15;4.53;;;1.80;;
75087;SDS011;63664;44.868;40.600;2023-06-14T17:04:41;2.35;;;2.15;;
75087;SDS011;63664;44.868;40.600;2023-06-14T17:07:08;5.75;;;1.70;;
75087;SDS011;63664;44.868;40.600;2023-06-14T17:09:34;4.85;;;2.05;;
75087;SDS011;63664;44.868;40.600;2023-06-14T17:12:02;4.25;;;1.80;;
75087;SDS011;63664;44.868;40.600;2023-06-14T17:14:30;3.22;;;1.92;;
75087;SDS011;63664;44.868;40.600;2023-06-14T17:16:57;4.78;;;1.90;;
75087;SDS011;63664;44.868;40.600;2023-06-14T17:19:23;4.05;;;2.20;;
75087;SDS011;63664;44.868;40.600;2023-06-14T17:21:50;4.50;;;2.05;;
75087;SDS011;63664;44.868;40.600;2023-06-14T17:24:20;2.33;;;1.83;;
75087;SDS011;63664;44.868;40.600;2023-06-14T17:26:48;3.15;;;1.80;;
75087;SDS011;63664;44.868;40.600;2023-06-14T17:29:15;3.13;;;1.73;;
75087;SDS011;63664;44.868;40.600;2023-06-14T17:31:41;2.38;;;1.58;;
75087;SDS011;63664;44.868;40.600;2023-06-14T17:34:10;3.90;;;1.60;;
75087;SDS011;63664;44.868;40.600;2023-06-14T17:36:36;2.92;;;1.77;;
75087;SDS011;63664;44.868;40.600;2023-06-14T17:39:02;3.67;;;2.08;;
75087;SDS011;63664;44.868;40.600;2023-06-14T17:41:31;2.38;;;1.60;;
75087;SDS011;63664;44.868;40.600;2023-06-14T17:43:57;4.28;;;1.75;;
75087;SDS011;63664;44.868;40.600;2023-06-14T17:46:24;2.80;;;1.70;;
75087;SDS011;63664;44.868;40.600;2023-06-14T17:48:50;1.90;;;1.20;;
75087;SDS011;63664;44.868;40.600;2023-06-14T17:51:16;3.58;;;1.70;;
75087;SDS011;63664;44.868;40.600;2023-06-14T17:53:44;1.90;;;1.30;;
75087;SDS011;63664;44.868;40.600;2023-06-14T17:56:11;2.88;;;1.70;;
75087;SDS011;63664;44.868;40.600;2023-06-14T17:58:37;2.60;;;1.60;;
75087;SDS011;63664;44.868;40.600;2023-06-14T18:01:04;3.50;;;1.70;;
75087;SDS011;63664;44.868;40.600;2023-06-14T18:03:32;3.38;;;1.38;;
75087;SDS011;63664;44.868;40.600;2023-06-14T18:05:58;1.80;;;1.50;;
75087;SDS011;63664;44.868;40.600;2023-06-14T18:08:25;2.28;;;1.42;;
75087;SDS011;63664;44.868;40.600;2023-06-14T18:10:53;3.22;;;1.40;;
75087;SDS011;63664;44.868;40.600;2023-06-14T18:13:20;4.72;;;1.70;;
75087;SDS011;63664;44.868;40.600;2023-06-14T18:15:46;3.38;;;1.83;;
75087;SDS011;63664;44.868;40.600;2023-06-14T18:18:12;2.05;;;1.70;;
75087;SDS011;63664;44.868;40.600;2023-06-14T18:20:39;2.17;;;1.50;;
75087;SDS011;63664;44.868;40.600;2023-06-14T18:23:06;3.53;;;1.52;;
75087;SDS011;63664;44.868;40.600;2023-06-14T18:25:35;3.28;;;1.30;;
75087;SDS011;63664;44.868;40.600;2023-06-14T18:28:02;3.70;;;1.20;;
75087;SDS011;63664;44.868;40.600;2023-06-14T18:30:28;5.25;;;1.42;;
75087;SDS011;63664;44.868;40.600;2023-06-14T18:32:55;2.10;;;1.27;;
75087;SDS011;63664;44.868;40.600;2023-06-14T18:35:21;2.35;;;1.40;;
75087;SDS011;63664;44.868;40.600;2023-06-14T18:37:48;3.05;;;1.48;;
75087;SDS011;63664;44.868;40.600;2023-06-14T18:40:14;1.88;;;1.30;;
75087;SDS011;63664;44.868;40.600;2023-06-14T18:42:42;3.10;;;1.60;;
75087;SDS011;63664;44.868;40.600;2023-06-14T18:45:08;1.98;;;1.50;;
75087;SDS011;63664;44.868;40.600;2023-06-14T18:47:35;2.60;;;1.30;;
75087;SDS011;63664;44.868;40.600;2023-06-14T18:50:01;4.32;;;1.48;;
75087;SDS011;63664;44.868;40.600;2023-06-14T18:52:28;2.22;;;1.17;;
75087;SDS011;63664;44.868;40.600;2023-06-14T18:54:54;2.78;;;1.50;;
75087;SDS011;63664;44.868;40.600;2023-06-14T18:59:50;2.22;;;1.20;;
75087;SDS011;63664;44.868;40.600;2023-06-14T19:02:17;4.90;;;1.40;;
75087;SDS011;63664;44.868;40.600;2023-06-14T19:04:46;4.00;;;1.65;;
75087;SDS011;63664;44.868;40.600;2023-06-14T19:07:12;4.07;;;1.85;;
75087;SDS011;63664;44.868;40.600;2023-06-14T19:09:39;2.50;;;1.70;;
75087;SDS011;63664;44.868;40.600;2023-06-14T19:12:06;2.92;;;1.58;;
75087;SDS011;63664;44.868;40.600;2023-06-14T19:14:36;2.65;;;1.90;;
75087;SDS011;63664;44.868;40.600;2023-06-14T19:17:02;2.75;;;1.80;;
75087;SDS011;63664;44.868;40.600;2023-06-14T19:19:29;2.47;;;1.40;;
75087;SDS011;63664;44.868;40.600;2023-06-14T19:21:56;2.75;;;1.50;;
75087;SDS011;63664;44.868;40.600;2023-06-14T19:24:22;2.15;;;1.58;;
75087;SDS011;63664;44.868;40.600;2023-06-14T19:26:48;2.55;;;1.70;;
75087;SDS011;63664;44.868;40.600;2023-06-14T19:29:17;3.33;;;1.73;;
75087;SDS011;63664;44.868;40.600;2023-06-14T19:31:47;2.40;;;1.77;;
75087;SDS011;63664;44.868;40.600;2023-06-14T19:36:39;3.80;;;1.90;;
75087;SDS011;63664;44.868;40.600;2023-06-14T19:39:05;7.90;;;2.53;;
75087;SDS011;63664;44.868;40.600;2023-06-14T19:41:32;6.50;;;3.03;;
75087;SDS011;63664;44.868;40.600;2023-06-14T19:44:01;3.85;;;2.35;;
75087;SDS011;63664;44.868;40.600;2023-06-14T19:46:27;6.15;;;2.63;;
75087;SDS011;63664;44.868;40.600;2023-06-14T19:48:54;6.20;;;2.70;;
75087;SDS011;63664;44.868;40.600;2023-06-14T19:51:20;4.53;;;2.78;;
75087;SDS011;63664;44.868;40.600;2023-06-14T19:53:47;5.63;;;2.90;;
75087;SDS011;63664;44.868;40.600;2023-06-14T19:56:13;5.65;;;2.90;;
75087;SDS011;63664;44.868;40.600;2023-06-14T19:58:40;6.88;;;2.95;;
75087;SDS011;63664;44.868;40.600;2023-06-14T20:01:07;6.20;;;3.78;;
75087;SDS011;63664;44.868;40.600;2023-06-14T20:03:33;5.85;;;2.78;;
75087;SDS011;63664;44.868;40.600;2023-06-14T20:06:00;6.95;;;2.22;;
75087;SDS011;63664;44.868;40.600;2023-06-14T20:08:26;6.32;;;2.60;;
75087;SDS011;63664;44.868;40.600;2023-06-14T20:10:56;3.10;;;2.60;;